Main page
METAR-TAF:

METAR-TAF

Airports :

Adolfo Suárez Madrid–Barajas Airport

Madrid, Spain

latitude: 40-27N, longitude: 003-33W, elevation: 609 m

Current weather observation

The report was made 21 minutes ago, at 04:00 UTC
Calm wind
Temperature 10°C
Humidity 93%
Pressure 1018 hPa
Visibility 10 km or more
no clouds below 1500 m and no cumulonimbus

METAR: LEMD 170400Z 00000KT CAVOK 10/09 Q1018 NOSIG

Time: 06:21 (04:21 UTC)

Forecast

The report was made 5 hours and 21 minutes ago, at 23:00 UTC
Forecast valid from 17 at 00 UTC to 18 at 06 UTC
Wind 5 kt from the North/Northeast
Visibility 10 km or more
no clouds below 1500 m and no cumulonimbus
Probability 30% :
Temporary
from 17 at 15 UTC to 17 at 18 UTC
Wind 10 kt from the Southwest

TAF: LEMD 162300Z 1700/1806 02005KT CAVOK TX23/1715Z TN09/1706Z PROB30 TEMPO 1715/1718 22010KT

Weather observations and forecasts of more than 4000 airports (METAR and TAF reports).

The available stations are represented by yellow and red dots on the map.

Hover mouse over dot to see the name of the station.

Then click to see weather observations and forecasts.

To change the map : click on the green buttons with a black cross to zoom in, on the green button with a dash to zoom out, or on the green arrows for adjacent maps.


METAR-TAF: